sensor_id;sensor_type;location;lat;lon;timestamp;P1;durP1;ratioP1;P2;durP2;ratioP2
10550;SDS011;5324;50.684;3.862;2023-05-09T00:01:10;7.83;;;5.50;;
10550;SDS011;5324;50.684;3.862;2023-05-09T00:03:36;6.67;;;5.27;;
10550;SDS011;5324;50.684;3.862;2023-05-09T00:06:03;6.73;;;5.60;;
10550;SDS011;5324;50.684;3.862;2023-05-09T00:08:29;9.67;;;5.87;;
10550;SDS011;5324;50.684;3.862;2023-05-09T00:10:55;9.73;;;6.00;;
10550;SDS011;5324;50.684;3.862;2023-05-09T00:13:21;6.77;;;5.00;;
10550;SDS011;5324;50.684;3.862;2023-05-09T00:15:48;7.00;;;5.50;;
10550;SDS011;5324;50.684;3.862;2023-05-09T00:18:18;8.53;;;6.07;;
10550;SDS011;5324;50.684;3.862;2023-05-09T00:20:44;7.57;;;5.37;;
10550;SDS011;5324;50.684;3.862;2023-05-09T00:23:10;6.77;;;5.60;;
10550;SDS011;5324;50.684;3.862;2023-05-09T00:25:36;7.37;;;6.00;;
10550;SDS011;5324;50.684;3.862;2023-05-09T00:28:02;6.43;;;5.30;;
10550;SDS011;5324;50.684;3.862;2023-05-09T00:30:28;7.13;;;6.13;;
10550;SDS011;5324;50.684;3.862;2023-05-09T00:32:54;6.90;;;5.40;;
10550;SDS011;5324;50.684;3.862;2023-05-09T00:35:20;9.80;;;5.57;;
10550;SDS011;5324;50.684;3.862;2023-05-09T00:37:46;11.00;;;5.63;;
10550;SDS011;5324;50.684;3.862;2023-05-09T00:40:12;8.87;;;6.10;;
10550;SDS011;5324;50.684;3.862;2023-05-09T00:42:38;7.43;;;5.13;;
10550;SDS011;5324;50.684;3.862;2023-05-09T00:45:05;8.17;;;5.93;;
10550;SDS011;5324;50.684;3.862;2023-05-09T00:47:32;8.57;;;6.67;;
10550;SDS011;5324;50.684;3.862;2023-05-09T00:49:58;9.80;;;6.77;;
10550;SDS011;5324;50.684;3.862;2023-05-09T00:52:25;9.43;;;6.20;;
10550;SDS011;5324;50.684;3.862;2023-05-09T00:54:54;10.83;;;6.50;;
10550;SDS011;5324;50.684;3.862;2023-05-09T00:57:23;6.53;;;5.70;;
10550;SDS011;5324;50.684;3.862;2023-05-09T00:59:49;7.17;;;5.93;;
10550;SDS011;5324;50.684;3.862;2023-05-09T01:02:18;8.43;;;5.87;;
10550;SDS011;5324;50.684;3.862;2023-05-09T01:04:45;7.37;;;6.60;;
10550;SDS011;5324;50.684;3.862;2023-05-09T01:12:30;8.27;;;5.90;;
10550;SDS011;5324;50.684;3.862;2023-05-09T01:15:05;9.20;;;5.90;;
10550;SDS011;5324;50.684;3.862;2023-05-09T01:20:11;7.37;;;6.30;;
10550;SDS011;5324;50.684;3.862;2023-05-09T01:22:38;11.70;;;5.97;;
10550;SDS011;5324;50.684;3.862;2023-05-09T01:30:30;11.27;;;6.63;;
10550;SDS011;5324;50.684;3.862;2023-05-09T01:32:58;8.37;;;6.73;;
10550;SDS011;5324;50.684;3.862;2023-05-09T01:35:25;11.10;;;7.00;;
10550;SDS011;5324;50.684;3.862;2023-05-09T01:37:51;8.60;;;6.60;;
10550;SDS011;5324;50.684;3.862;2023-05-09T01:40:19;11.40;;;7.43;;
10550;SDS011;5324;50.684;3.862;2023-05-09T01:42:50;12.10;;;7.50;;
10550;SDS011;5324;50.684;3.862;2023-05-09T01:45:17;9.70;;;6.90;;
10550;SDS011;5324;50.684;3.862;2023-05-09T01:47:43;10.73;;;7.57;;
10550;SDS011;5324;50.684;3.862;2023-05-09T01:50:11;12.03;;;6.80;;
10550;SDS011;5324;50.684;3.862;2023-05-09T01:52:38;10.50;;;7.23;;
10550;SDS011;5324;50.684;3.862;2023-05-09T01:55:05;11.50;;;7.10;;
10550;SDS011;5324;50.684;3.862;2023-05-09T01:57:32;13.40;;;7.30;;
10550;SDS011;5324;50.684;3.862;2023-05-09T02:00:00;10.43;;;7.73;;
10550;SDS011;5324;50.684;3.862;2023-05-09T02:02:27;8.07;;;6.80;;
10550;SDS011;5324;50.684;3.862;2023-05-09T02:04:54;10.80;;;6.93;;
10550;SDS011;5324;50.684;3.862;2023-05-09T02:07:20;12.30;;;7.47;;
10550;SDS011;5324;50.684;3.862;2023-05-09T02:09:50;10.63;;;6.57;;
10550;SDS011;5324;50.684;3.862;2023-05-09T02:12:33;8.30;;;6.53;;
10550;SDS011;5324;50.684;3.862;2023-05-09T02:15:00;7.40;;;6.40;;
10550;SDS011;5324;50.684;3.862;2023-05-09T02:17:26;11.37;;;7.03;;
10550;SDS011;5324;50.684;3.862;2023-05-09T02:19:54;13.00;;;6.87;;
10550;SDS011;5324;50.684;3.862;2023-05-09T02:22:20;9.57;;;6.30;;
10550;SDS011;5324;50.684;3.862;2023-05-09T02:24:47;9.27;;;6.50;;
10550;SDS011;5324;50.684;3.862;2023-05-09T02:27:13;8.23;;;6.20;;
10550;SDS011;5324;50.684;3.862;2023-05-09T02:29:40;8.53;;;6.37;;
10550;SDS011;5324;50.684;3.862;2023-05-09T02:32:10;11.63;;;6.97;;
10550;SDS011;5324;50.684;3.862;2023-05-09T02:34:36;7.43;;;6.27;;
10550;SDS011;5324;50.684;3.862;2023-05-09T02:37:03;8.37;;;6.20;;
10550;SDS011;5324;50.684;3.862;2023-05-09T02:39:29;9.80;;;6.67;;
10550;SDS011;5324;50.684;3.862;2023-05-09T02:41:56;8.80;;;5.97;;
10550;SDS011;5324;50.684;3.862;2023-05-09T02:44:22;6.60;;;5.67;;
10550;SDS011;5324;50.684;3.862;2023-05-09T02:46:48;6.53;;;5.83;;
10550;SDS011;5324;50.684;3.862;2023-05-09T02:49:14;8.63;;;6.50;;
10550;SDS011;5324;50.684;3.862;2023-05-09T02:51:40;10.30;;;6.33;;
10550;SDS011;5324;50.684;3.862;2023-05-09T02:54:06;7.67;;;6.17;;
10550;SDS011;5324;50.684;3.862;2023-05-09T02:56:32;10.10;;;7.20;;
10550;SDS011;5324;50.684;3.862;2023-05-09T02:58:58;7.67;;;5.97;;
10550;SDS011;5324;50.684;3.862;2023-05-09T03:01:24;9.37;;;6.70;;
10550;SDS011;5324;50.684;3.862;2023-05-09T03:03:50;7.83;;;6.07;;
10550;SDS011;5324;50.684;3.862;2023-05-09T03:06:17;9.67;;;6.90;;
10550;SDS011;5324;50.684;3.862;2023-05-09T03:08:43;8.23;;;6.10;;
10550;SDS011;5324;50.684;3.862;2023-05-09T03:11:09;7.53;;;6.03;;
10550;SDS011;5324;50.684;3.862;2023-05-09T03:13:35;8.63;;;6.60;;
10550;SDS011;5324;50.684;3.862;2023-05-09T03:16:01;8.93;;;6.40;;
10550;SDS011;5324;50.684;3.862;2023-05-09T03:18:27;10.33;;;6.30;;
10550;SDS011;5324;50.684;3.862;2023-05-09T03:20:53;10.87;;;6.57;;
10550;SDS011;5324;50.684;3.862;2023-05-09T03:23:19;7.63;;;6.60;;
10550;SDS011;5324;50.684;3.862;2023-05-09T03:25:45;9.53;;;6.27;;
10550;SDS011;5324;50.684;3.862;2023-05-09T03:28:11;9.10;;;6.57;;
10550;SDS011;5324;50.684;3.862;2023-05-09T03:30:36;9.40;;;6.73;;
10550;SDS011;5324;50.684;3.862;2023-05-09T03:33:02;8.47;;;6.70;;
10550;SDS011;5324;50.684;3.862;2023-05-09T03:35:30;9.57;;;6.47;;
10550;SDS011;5324;50.684;3.862;2023-05-09T03:37:56;9.40;;;7.03;;
10550;SDS011;5324;50.684;3.862;2023-05-09T03:40:22;8.43;;;6.37;;
10550;SDS011;5324;50.684;3.862;2023-05-09T03:42:48;8.73;;;6.90;;
10550;SDS011;5324;50.684;3.862;2023-05-09T03:45:14;13.43;;;6.97;;
10550;SDS011;5324;50.684;3.862;2023-05-09T03:47:40;12.07;;;6.93;;
10550;SDS011;5324;50.684;3.862;2023-05-09T03:50:06;8.60;;;6.40;;
10550;SDS011;5324;50.684;3.862;2023-05-09T03:52:32;7.53;;;6.57;;
10550;SDS011;5324;50.684;3.862;2023-05-09T03:54:58;10.43;;;7.03;;
10550;SDS011;5324;50.684;3.862;2023-05-09T03:57:24;10.30;;;6.00;;
10550;SDS011;5324;50.684;3.862;2023-05-09T03:59:51;8.90;;;6.37;;
10550;SDS011;5324;50.684;3.862;2023-05-09T04:02:17;8.53;;;6.63;;
10550;SDS011;5324;50.684;3.862;2023-05-09T04:04:43;9.63;;;6.70;;
10550;SDS011;5324;50.684;3.862;2023-05-09T04:07:10;9.30;;;6.83;;
10550;SDS011;5324;50.684;3.862;2023-05-09T04:09:36;10.23;;;7.10;;
10550;SDS011;5324;50.684;3.862;2023-05-09T04:12:02;8.93;;;6.90;;
10550;SDS011;5324;50.684;3.862;2023-05-09T04:14:28;8.90;;;6.87;;
10550;SDS011;5324;50.684;3.862;2023-05-09T04:16:54;8.60;;;7.30;;
10550;SDS011;5324;50.684;3.862;2023-05-09T04:19:20;8.80;;;7.27;;
10550;SDS011;5324;50.684;3.862;2023-05-09T04:21:46;9.73;;;7.03;;
10550;SDS011;5324;50.684;3.862;2023-05-09T04:24:12;8.63;;;6.70;;
10550;SDS011;5324;50.684;3.862;2023-05-09T04:26:38;8.50;;;7.60;;
10550;SDS011;5324;50.684;3.862;2023-05-09T04:29:04;7.77;;;6.30;;
10550;SDS011;5324;50.684;3.862;2023-05-09T04:31:30;9.43;;;7.33;;
10550;SDS011;5324;50.684;3.862;2023-05-09T04:33:57;11.00;;;7.57;;
10550;SDS011;5324;50.684;3.862;2023-05-09T04:36:23;7.73;;;6.73;;
10550;SDS011;5324;50.684;3.862;2023-05-09T04:38:49;8.03;;;7.17;;
10550;SDS011;5324;50.684;3.862;2023-05-09T04:41:15;12.47;;;7.20;;
10550;SDS011;5324;50.684;3.862;2023-05-09T04:43:41;7.67;;;6.60;;
10550;SDS011;5324;50.684;3.862;2023-05-09T04:46:07;8.73;;;7.37;;
10550;SDS011;5324;50.684;3.862;2023-05-09T04:48:33;8.67;;;6.90;;
10550;SDS011;5324;50.684;3.862;2023-05-09T04:51:00;7.10;;;6.40;;
10550;SDS011;5324;50.684;3.862;2023-05-09T04:53:26;9.10;;;6.43;;
10550;SDS011;5324;50.684;3.862;2023-05-09T04:55:52;8.37;;;6.53;;
10550;SDS011;5324;50.684;3.862;2023-05-09T04:58:18;8.40;;;6.73;;
10550;SDS011;5324;50.684;3.862;2023-05-09T05:00:44;7.90;;;6.70;;
10550;SDS011;5324;50.684;3.862;2023-05-09T05:03:11;9.73;;;6.60;;
10550;SDS011;5324;50.684;3.862;2023-05-09T05:05:37;7.57;;;6.00;;
10550;SDS011;5324;50.684;3.862;2023-05-09T05:08:05;8.17;;;6.83;;
10550;SDS011;5324;50.684;3.862;2023-05-09T05:10:31;10.17;;;6.90;;
10550;SDS011;5324;50.684;3.862;2023-05-09T05:12:57;7.00;;;6.10;;
10550;SDS011;5324;50.684;3.862;2023-05-09T05:15:23;7.37;;;6.13;;
10550;SDS011;5324;50.684;3.862;2023-05-09T05:17:50;7.73;;;6.97;;
10550;SDS011;5324;50.684;3.862;2023-05-09T05:20:17;9.07;;;6.60;;
10550;SDS011;5324;50.684;3.862;2023-05-09T05:22:43;10.33;;;6.63;;
10550;SDS011;5324;50.684;3.862;2023-05-09T05:25:09;8.00;;;6.50;;
10550;SDS011;5324;50.684;3.862;2023-05-09T05:27:36;9.47;;;6.70;;
10550;SDS011;5324;50.684;3.862;2023-05-09T05:30:02;7.00;;;6.30;;
10550;SDS011;5324;50.684;3.862;2023-05-09T05:32:28;7.23;;;6.00;;
10550;SDS011;5324;50.684;3.862;2023-05-09T05:34:54;7.80;;;7.00;;
10550;SDS011;5324;50.684;3.862;2023-05-09T05:37:21;7.47;;;6.67;;
10550;SDS011;5324;50.684;3.862;2023-05-09T05:39:47;9.67;;;6.67;;
10550;SDS011;5324;50.684;3.862;2023-05-09T05:42:15;8.03;;;6.40;;
10550;SDS011;5324;50.684;3.862;2023-05-09T05:44:41;7.00;;;6.20;;
10550;SDS011;5324;50.684;3.862;2023-05-09T05:47:07;8.80;;;6.30;;
10550;SDS011;5324;50.684;3.862;2023-05-09T05:49:33;7.00;;;6.30;;
10550;SDS011;5324;50.684;3.862;2023-05-09T05:51:59;7.50;;;6.50;;
10550;SDS011;5324;50.684;3.862;2023-05-09T05:54:25;6.93;;;6.00;;
10550;SDS011;5324;50.684;3.862;2023-05-09T05:56:51;8.77;;;6.43;;
10550;SDS011;5324;50.684;3.862;2023-05-09T05:59:17;7.10;;;5.27;;
10550;SDS011;5324;50.684;3.862;2023-05-09T06:01:43;7.97;;;5.97;;
10550;SDS011;5324;50.684;3.862;2023-05-09T06:04:09;7.43;;;5.70;;
10550;SDS011;5324;50.684;3.862;2023-05-09T06:06:35;9.87;;;6.50;;
10550;SDS011;5324;50.684;3.862;2023-05-09T06:09:01;7.50;;;6.30;;
10550;SDS011;5324;50.684;3.862;2023-05-09T06:11:27;6.00;;;5.40;;
10550;SDS011;5324;50.684;3.862;2023-05-09T06:13:53;7.60;;;5.87;;
10550;SDS011;5324;50.684;3.862;2023-05-09T06:16:19;6.47;;;5.77;;
10550;SDS011;5324;50.684;3.862;2023-05-09T06:18:46;6.53;;;5.90;;
10550;SDS011;5324;50.684;3.862;2023-05-09T06:21:12;7.23;;;6.27;;
10550;SDS011;5324;50.684;3.862;2023-05-09T06:23:38;10.03;;;6.67;;
10550;SDS011;5324;50.684;3.862;2023-05-09T06:26:04;7.40;;;5.67;;
10550;SDS011;5324;50.684;3.862;2023-05-09T06:28:30;8.60;;;6.67;;
10550;SDS011;5324;50.684;3.862;2023-05-09T06:30:56;7.10;;;6.20;;
10550;SDS011;5324;50.684;3.862;2023-05-09T06:33:22;7.00;;;5.60;;
10550;SDS011;5324;50.684;3.862;2023-05-09T06:35:48;9.53;;;5.40;;
10550;SDS011;5324;50.684;3.862;2023-05-09T06:38:14;7.23;;;5.70;;
10550;SDS011;5324;50.684;3.862;2023-05-09T06:40:40;6.37;;;5.40;;
10550;SDS011;5324;50.684;3.862;2023-05-09T06:43:06;5.40;;;4.67;;
10550;SDS011;5324;50.684;3.862;2023-05-09T06:45:32;6.07;;;5.47;;
10550;SDS011;5324;50.684;3.862;2023-05-09T06:47:59;5.43;;;4.90;;
10550;SDS011;5324;50.684;3.862;2023-05-09T06:50:25;6.38;;;5.40;;
10550;SDS011;5324;50.684;3.862;2023-05-09T06:52:51;6.78;;;4.95;;
10550;SDS011;5324;50.684;3.862;2023-05-09T06:55:17;7.10;;;5.43;;
10550;SDS011;5324;50.684;3.862;2023-05-09T06:57:43;6.05;;;5.15;;
10550;SDS011;5324;50.684;3.862;2023-05-09T07:00:09;6.40;;;5.47;;
10550;SDS011;5324;50.684;3.862;2023-05-09T07:02:35;6.70;;;4.80;;
10550;SDS011;5324;50.684;3.862;2023-05-09T07:05:05;6.30;;;4.80;;
10550;SDS011;5324;50.684;3.862;2023-05-09T07:07:31;7.10;;;5.00;;
10550;SDS011;5324;50.684;3.862;2023-05-09T07:09:57;6.57;;;4.83;;
10550;SDS011;5324;50.684;3.862;2023-05-09T07:12:25;8.40;;;5.17;;
10550;SDS011;5324;50.684;3.862;2023-05-09T07:14:51;8.67;;;4.63;;
10550;SDS011;5324;50.684;3.862;2023-05-09T07:17:17;5.50;;;4.47;;
10550;SDS011;5324;50.684;3.862;2023-05-09T07:19:43;5.43;;;4.20;;
10550;SDS011;5324;50.684;3.862;2023-05-09T07:22:09;5.37;;;4.57;;
10550;SDS011;5324;50.684;3.862;2023-05-09T07:24:35;8.77;;;4.63;;
10550;SDS011;5324;50.684;3.862;2023-05-09T07:27:01;4.38;;;3.97;;
10550;SDS011;5324;50.684;3.862;2023-05-09T07:29:27;4.53;;;4.13;;
10550;SDS011;5324;50.684;3.862;2023-05-09T07:31:53;4.57;;;4.18;;
10550;SDS011;5324;50.684;3.862;2023-05-09T07:34:20;5.80;;;3.90;;
10550;SDS011;5324;50.684;3.862;2023-05-09T07:36:47;4.77;;;4.00;;
10550;SDS011;5324;50.684;3.862;2023-05-09T07:39:13;3.97;;;3.40;;
10550;SDS011;5324;50.684;3.862;2023-05-09T07:41:40;4.40;;;4.00;;
10550;SDS011;5324;50.684;3.862;2023-05-09T07:44:06;5.20;;;3.80;;
10550;SDS011;5324;50.684;3.862;2023-05-09T07:46:34;5.80;;;3.90;;
10550;SDS011;5324;50.684;3.862;2023-05-09T07:49:01;4.32;;;3.85;;
10550;SDS011;5324;50.684;3.862;2023-05-09T07:51:27;4.18;;;3.72;;
10550;SDS011;5324;50.684;3.862;2023-05-09T07:53:53;9.13;;;3.80;;
10550;SDS011;5324;50.684;3.862;2023-05-09T07:56:20;5.10;;;3.30;;
10550;SDS011;5324;50.684;3.862;2023-05-09T07:58:47;4.60;;;3.65;;
10550;SDS011;5324;50.684;3.862;2023-05-09T08:01:13;4.65;;;3.60;;
10550;SDS011;5324;50.684;3.862;2023-05-09T08:03:39;3.73;;;3.17;;
10550;SDS011;5324;50.684;3.862;2023-05-09T08:06:05;3.80;;;3.40;;
10550;SDS011;5324;50.684;3.862;2023-05-09T08:08:31;4.17;;;3.50;;
10550;SDS011;5324;50.684;3.862;2023-05-09T08:10:57;3.92;;;3.38;;
10550;SDS011;5324;50.684;3.862;2023-05-09T08:13:23;5.43;;;3.72;;
10550;SDS011;5324;50.684;3.862;2023-05-09T08:15:49;4.30;;;3.53;;
10550;SDS011;5324;50.684;3.862;2023-05-09T08:18:15;4.30;;;3.35;;
10550;SDS011;5324;50.684;3.862;2023-05-09T08:20:42;3.78;;;3.30;;
10550;SDS011;5324;50.684;3.862;2023-05-09T08:23:07;3.63;;;2.95;;
10550;SDS011;5324;50.684;3.862;2023-05-09T08:25:34;4.43;;;3.53;;
10550;SDS011;5324;50.684;3.862;2023-05-09T08:28:00;4.47;;;3.33;;
10550;SDS011;5324;50.684;3.862;2023-05-09T08:30:26;4.38;;;3.13;;
10550;SDS011;5324;50.684;3.862;2023-05-09T08:32:53;3.57;;;3.27;;
10550;SDS011;5324;50.684;3.862;2023-05-09T08:35:20;3.65;;;3.30;;
10550;SDS011;5324;50.684;3.862;2023-05-09T08:37:46;6.03;;;4.05;;
10550;SDS011;5324;50.684;3.862;2023-05-09T08:40:12;4.50;;;3.78;;
10550;SDS011;5324;50.684;3.862;2023-05-09T08:42:38;4.60;;;3.88;;
10550;SDS011;5324;50.684;3.862;2023-05-09T08:45:06;5.25;;;4.40;;
10550;SDS011;5324;50.684;3.862;2023-05-09T08:47:34;7.07;;;4.47;;
10550;SDS011;5324;50.684;3.862;2023-05-09T08:50:01;5.60;;;4.32;;
10550;SDS011;5324;50.684;3.862;2023-05-09T08:52:28;6.63;;;4.68;;
10550;SDS011;5324;50.684;3.862;2023-05-09T08:54:55;7.22;;;4.38;;
10550;SDS011;5324;50.684;3.862;2023-05-09T08:57:21;5.03;;;4.10;;
10550;SDS011;5324;50.684;3.862;2023-05-09T08:59:48;5.88;;;4.35;;
10550;SDS011;5324;50.684;3.862;2023-05-09T09:02:14;3.70;;;3.40;;
10550;SDS011;5324;50.684;3.862;2023-05-09T09:04:40;5.45;;;4.40;;
10550;SDS011;5324;50.684;3.862;2023-05-09T09:07:06;4.50;;;3.73;;
10550;SDS011;5324;50.684;3.862;2023-05-09T09:09:33;5.27;;;3.70;;
10550;SDS011;5324;50.684;3.862;2023-05-09T09:12:01;5.30;;;4.43;;
10550;SDS011;5324;50.684;3.862;2023-05-09T09:14:27;7.67;;;4.17;;
10550;SDS011;5324;50.684;3.862;2023-05-09T09:16:56;6.57;;;3.90;;
10550;SDS011;5324;50.684;3.862;2023-05-09T09:19:24;5.60;;;3.43;;
10550;SDS011;5324;50.684;3.862;2023-05-09T09:21:54;4.47;;;3.43;;
10550;SDS011;5324;50.684;3.862;2023-05-09T09:24:23;4.10;;;3.50;;
10550;SDS011;5324;50.684;3.862;2023-05-09T09:26:49;5.13;;;3.00;;
10550;SDS011;5324;50.684;3.862;2023-05-09T09:29:16;4.30;;;3.40;;
10550;SDS011;5324;50.684;3.862;2023-05-09T09:31:46;3.70;;;3.07;;
10550;SDS011;5324;50.684;3.862;2023-05-09T09:34:13;5.30;;;3.77;;
10550;SDS011;5324;50.684;3.862;2023-05-09T09:36:43;5.73;;;3.60;;
10550;SDS011;5324;50.684;3.862;2023-05-09T09:39:11;4.05;;;3.28;;
10550;SDS011;5324;50.684;3.862;2023-05-09T09:41:38;3.05;;;2.83;;
10550;SDS011;5324;50.684;3.862;2023-05-09T09:44:05;3.42;;;2.92;;
10550;SDS011;5324;50.684;3.862;2023-05-09T09:49:08;2.80;;;2.50;;
10550;SDS011;5324;50.684;3.862;2023-05-09T09:51:34;2.70;;;2.50;;
10550;SDS011;5324;50.684;3.862;2023-05-09T09:54:01;8.03;;;2.40;;
10550;SDS011;5324;50.684;3.862;2023-05-09T09:56:41;2.53;;;2.17;;
10550;SDS011;5324;50.684;3.862;2023-05-09T09:59:08;2.90;;;1.90;;
10550;SDS011;5324;50.684;3.862;2023-05-09T10:01:35;1.90;;;1.63;;
10550;SDS011;5324;50.684;3.862;2023-05-09T10:04:01;2.17;;;1.60;;
10550;SDS011;5324;50.684;3.862;2023-05-09T10:06:27;2.23;;;2.00;;
10550;SDS011;5324;50.684;3.862;2023-05-09T10:08:53;3.93;;;1.80;;
10550;SDS011;5324;50.684;3.862;2023-05-09T10:11:19;3.37;;;1.40;;
10550;SDS011;5324;50.684;3.862;2023-05-09T10:13:45;1.63;;;1.53;;
10550;SDS011;5324;50.684;3.862;2023-05-09T10:16:12;2.03;;;1.50;;
10550;SDS011;5324;50.684;3.862;2023-05-09T10:18:38;1.83;;;1.60;;
10550;SDS011;5324;50.684;3.862;2023-05-09T10:21:05;2.20;;;1.97;;
10550;SDS011;5324;50.684;3.862;2023-05-09T10:23:33;2.25;;;2.05;;
10550;SDS011;5324;50.684;3.862;2023-05-09T10:26:11;2.20;;;2.00;;
10550;SDS011;5324;50.684;3.862;2023-05-09T10:28:41;2.27;;;2.07;;
10550;SDS011;5324;50.684;3.862;2023-05-09T10:31:21;3.00;;;2.03;;
10550;SDS011;5324;50.684;3.862;2023-05-09T10:33:50;2.40;;;1.90;;
10550;SDS011;5324;50.684;3.862;2023-05-09T10:36:17;3.40;;;2.17;;
10550;SDS011;5324;50.684;3.862;2023-05-09T10:38:48;3.13;;;2.40;;
10550;SDS011;5324;50.684;3.862;2023-05-09T10:41:15;2.77;;;2.43;;
10550;SDS011;5324;50.684;3.862;2023-05-09T10:43:41;2.40;;;2.20;;
10550;SDS011;5324;50.684;3.862;2023-05-09T10:46:07;2.80;;;2.60;;
10550;SDS011;5324;50.684;3.862;2023-05-09T10:48:34;3.90;;;2.10;;
10550;SDS011;5324;50.684;3.862;2023-05-09T10:51:01;3.67;;;2.47;;
10550;SDS011;5324;50.684;3.862;2023-05-09T10:56:21;2.55;;;2.35;;
10550;SDS011;5324;50.684;3.862;2023-05-09T10:58:47;2.83;;;1.97;;
10550;SDS011;5324;50.684;3.862;2023-05-09T11:01:13;2.35;;;1.55;;
10550;SDS011;5324;50.684;3.862;2023-05-09T11:12:07;2.72;;;2.53;;
10550;SDS011;5324;50.684;3.862;2023-05-09T11:17:07;1.77;;;1.67;;
10550;SDS011;5324;50.684;3.862;2023-05-09T11:19:37;1.83;;;1.60;;
10550;SDS011;5324;50.684;3.862;2023-05-09T11:22:10;1.57;;;1.43;;
10550;SDS011;5324;50.684;3.862;2023-05-09T11:24:37;1.60;;;1.50;;
10550;SDS011;5324;50.684;3.862;2023-05-09T11:29:56;2.70;;;1.40;;
10550;SDS011;5324;50.684;3.862;2023-05-09T11:32:26;1.67;;;1.33;;
10550;SDS011;5324;50.684;3.862;2023-05-09T11:35:15;1.60;;;1.50;;
10550;SDS011;5324;50.684;3.862;2023-05-09T11:40:13;1.60;;;1.50;;
10550;SDS011;5324;50.684;3.862;2023-05-09T11:42:41;1.90;;;1.73;;
10550;SDS011;5324;50.684;3.862;2023-05-09T11:45:09;2.27;;;1.50;;
10550;SDS011;5324;50.684;3.862;2023-05-09T11:47:36;1.87;;;1.77;;
10550;SDS011;5324;50.684;3.862;2023-05-09T11:50:04;1.60;;;1.50;;
10550;SDS011;5324;50.684;3.862;2023-05-09T11:52:31;5.83;;;1.90;;
10550;SDS011;5324;50.684;3.862;2023-05-09T11:54:57;2.17;;;1.60;;
10550;SDS011;5324;50.684;3.862;2023-05-09T11:57:24;1.83;;;1.27;;
10550;SDS011;5324;50.684;3.862;2023-05-09T11:59:50;1.63;;;1.53;;
10550;SDS011;5324;50.684;3.862;2023-05-09T12:02:16;1.87;;;1.60;;
10550;SDS011;5324;50.684;3.862;2023-05-09T12:04:42;2.47;;;1.80;;
10550;SDS011;5324;50.684;3.862;2023-05-09T12:07:08;2.23;;;1.37;;
10550;SDS011;5324;50.684;3.862;2023-05-09T12:09:35;1.60;;;1.50;;
10550;SDS011;5324;50.684;3.862;2023-05-09T12:12:11;1.60;;;1.50;;
10550;SDS011;5324;50.684;3.862;2023-05-09T12:14:38;2.30;;;1.40;;
10550;SDS011;5324;50.684;3.862;2023-05-09T12:17:05;1.30;;;1.20;;
10550;SDS011;5324;50.684;3.862;2023-05-09T12:19:31;2.03;;;1.30;;
10550;SDS011;5324;50.684;3.862;2023-05-09T12:21:58;1.30;;;1.20;;
10550;SDS011;5324;50.684;3.862;2023-05-09T12:24:25;1.30;;;1.20;;
10550;SDS011;5324;50.684;3.862;2023-05-09T12:26:51;3.37;;;1.30;;
10550;SDS011;5324;50.684;3.862;2023-05-09T12:29:18;2.03;;;1.30;;
10550;SDS011;5324;50.684;3.862;2023-05-09T12:31:44;1.63;;;1.40;;
10550;SDS011;5324;50.684;3.862;2023-05-09T12:34:11;2.00;;;1.27;;
10550;SDS011;5324;50.684;3.862;2023-05-09T12:36:37;1.53;;;1.00;;
10550;SDS011;5324;50.684;3.862;2023-05-09T12:39:10;1.47;;;1.00;;
10550;SDS011;5324;50.684;3.862;2023-05-09T12:41:43;1.03;;;1.00;;
10550;SDS011;5324;50.684;3.862;2023-05-09T12:44:16;1.15;;;1.15;;
10550;SDS011;5324;50.684;3.862;2023-05-09T12:46:51;1.37;;;1.30;;
10550;SDS011;5324;50.684;3.862;2023-05-09T12:49:20;1.10;;;1.10;;
10550;SDS011;5324;50.684;3.862;2023-05-09T12:51:50;0.97;;;0.97;;
10550;SDS011;5324;50.684;3.862;2023-05-09T12:54:21;0.97;;;0.87;;
10550;SDS011;5324;50.684;3.862;2023-05-09T12:56:47;1.20;;;1.10;;
10550;SDS011;5324;50.684;3.862;2023-05-09T12:59:18;1.53;;;1.10;;
10550;SDS011;5324;50.684;3.862;2023-05-09T13:01:48;0.90;;;0.90;;
10550;SDS011;5324;50.684;3.862;2023-05-09T13:04:18;1.23;;;0.77;;
10550;SDS011;5324;50.684;3.862;2023-05-09T13:06:47;1.53;;;1.43;;
10550;SDS011;5324;50.684;3.862;2023-05-09T13:09:14;0.80;;;0.80;;
10550;SDS011;5324;50.684;3.862;2023-05-09T13:11:40;0.68;;;0.68;;
10550;SDS011;5324;50.684;3.862;2023-05-09T13:14:06;0.60;;;0.60;;
10550;SDS011;5324;50.684;3.862;2023-05-09T13:16:33;0.90;;;0.90;;
10550;SDS011;5324;50.684;3.862;2023-05-09T13:18:59;2.03;;;0.87;;
10550;SDS011;5324;50.684;3.862;2023-05-09T13:21:25;0.83;;;0.80;;
10550;SDS011;5324;50.684;3.862;2023-05-09T13:23:51;0.70;;;0.70;;
10550;SDS011;5324;50.684;3.862;2023-05-09T13:26:18;0.70;;;0.70;;
10550;SDS011;5324;50.684;3.862;2023-05-09T13:28:45;1.07;;;0.90;;
10550;SDS011;5324;50.684;3.862;2023-05-09T13:31:11;0.90;;;0.90;;
10550;SDS011;5324;50.684;3.862;2023-05-09T13:33:37;0.80;;;0.80;;
10550;SDS011;5324;50.684;3.862;2023-05-09T13:36:03;0.90;;;0.90;;
10550;SDS011;5324;50.684;3.862;2023-05-09T13:38:30;0.90;;;0.90;;
10550;SDS011;5324;50.684;3.862;2023-05-09T13:40:59;0.80;;;0.80;;
10550;SDS011;5324;50.684;3.862;2023-05-09T13:43:25;0.70;;;0.70;;
10550;SDS011;5324;50.684;3.862;2023-05-09T13:45:51;0.50;;;0.50;;
10550;SDS011;5324;50.684;3.862;2023-05-09T13:48:17;0.77;;;0.77;;
10550;SDS011;5324;50.684;3.862;2023-05-09T13:50:43;0.83;;;0.83;;
10550;SDS011;5324;50.684;3.862;2023-05-09T13:53:09;0.83;;;0.83;;
10550;SDS011;5324;50.684;3.862;2023-05-09T13:55:35;0.90;;;0.90;;
10550;SDS011;5324;50.684;3.862;2023-05-09T13:58:01;0.80;;;0.80;;
10550;SDS011;5324;50.684;3.862;2023-05-09T14:00:28;1.10;;;1.00;;
10550;SDS011;5324;50.684;3.862;2023-05-09T14:02:54;1.30;;;1.03;;
10550;SDS011;5324;50.684;3.862;2023-05-09T14:05:19;0.98;;;0.82;;
10550;SDS011;5324;50.684;3.862;2023-05-09T14:07:46;0.83;;;0.83;;
10550;SDS011;5324;50.684;3.862;2023-05-09T14:10:13;1.00;;;1.00;;
10550;SDS011;5324;50.684;3.862;2023-05-09T14:12:39;1.10;;;1.00;;
10550;SDS011;5324;50.684;3.862;2023-05-09T14:15:08;1.88;;;1.10;;
10550;SDS011;5324;50.684;3.862;2023-05-09T14:17:34;1.05;;;1.00;;
10550;SDS011;5324;50.684;3.862;2023-05-09T14:20:00;1.15;;;1.05;;
10550;SDS011;5324;50.684;3.862;2023-05-09T14:22:27;1.02;;;1.02;;
10550;SDS011;5324;50.684;3.862;2023-05-09T14:24:53;1.30;;;1.20;;
10550;SDS011;5324;50.684;3.862;2023-05-09T14:27:21;1.80;;;1.70;;
10550;SDS011;5324;50.684;3.862;2023-05-09T14:29:47;1.38;;;1.27;;
10550;SDS011;5324;50.684;3.862;2023-05-09T14:32:13;1.70;;;1.60;;
10550;SDS011;5324;50.684;3.862;2023-05-09T14:34:39;1.02;;;1.02;;
10550;SDS011;5324;50.684;3.862;2023-05-09T14:37:05;1.50;;;1.40;;
10550;SDS011;5324;50.684;3.862;2023-05-09T14:39:38;3.42;;;1.10;;
10550;SDS011;5324;50.684;3.862;2023-05-09T14:42:04;1.10;;;1.10;;
10550;SDS011;5324;50.684;3.862;2023-05-09T14:44:32;2.08;;;1.65;;
10550;SDS011;5324;50.684;3.862;2023-05-09T14:46:58;1.58;;;1.40;;
10550;SDS011;5324;50.684;3.862;2023-05-09T14:49:24;1.40;;;1.30;;
10550;SDS011;5324;50.684;3.862;2023-05-09T14:51:50;1.42;;;1.38;;
10550;SDS011;5324;50.684;3.862;2023-05-09T14:54:16;1.50;;;1.40;;
10550;SDS011;5324;50.684;3.862;2023-05-09T14:56:42;1.38;;;1.27;;
10550;SDS011;5324;50.684;3.862;2023-05-09T14:59:08;1.35;;;1.27;;
10550;SDS011;5324;50.684;3.862;2023-05-09T15:01:34;1.58;;;1.48;;
10550;SDS011;5324;50.684;3.862;2023-05-09T15:04:01;1.92;;;1.60;;
10550;SDS011;5324;50.684;3.862;2023-05-09T15:06:27;1.63;;;1.52;;
10550;SDS011;5324;50.684;3.862;2023-05-09T15:08:54;2.05;;;1.85;;
10550;SDS011;5324;50.684;3.862;2023-05-09T15:11:20;1.98;;;1.70;;
10550;SDS011;5324;50.684;3.862;2023-05-09T15:13:46;2.25;;;2.03;;
10550;SDS011;5324;50.684;3.862;2023-05-09T15:16:12;1.88;;;1.77;;
10550;SDS011;5324;50.684;3.862;2023-05-09T15:18:38;2.28;;;1.88;;
10550;SDS011;5324;50.684;3.862;2023-05-09T15:21:09;2.13;;;2.00;;
10550;SDS011;5324;50.684;3.862;2023-05-09T15:23:36;1.90;;;1.60;;
10550;SDS011;5324;50.684;3.862;2023-05-09T15:26:04;1.83;;;1.73;;
10550;SDS011;5324;50.684;3.862;2023-05-09T15:28:33;1.80;;;1.70;;
10550;SDS011;5324;50.684;3.862;2023-05-09T15:30:59;1.80;;;1.70;;
10550;SDS011;5324;50.684;3.862;2023-05-09T15:33:25;2.00;;;1.90;;